createdAt,value
2017-08-08T00:00:59.887Z,98851.27
2017-08-08T00:03:29.863Z,98855.06
2017-08-08T00:05:59.654Z,98857.80
2017-08-08T00:08:30.155Z,98854.70
2017-08-08T00:10:59.959Z,98856.38
2017-08-08T00:13:29.563Z,98854.53
2017-08-08T00:16:00.031Z,98852.02
2017-08-08T00:18:29.995Z,98854.20
2017-08-08T00:20:59.666Z,98853.08
2017-08-08T00:23:29.130Z,98857.95
2017-08-08T00:25:59.422Z,98856.48
2017-08-08T00:28:29.069Z,98856.48
2017-08-08T00:30:59.299Z,98854.20
2017-08-08T00:33:29.228Z,98856.39
2017-08-08T00:35:59.450Z,98858.32
2017-08-08T00:38:28.967Z,98849.49
2017-08-08T00:40:59.594Z,98852.34
2017-08-08T00:43:29.315Z,98844.44
2017-08-08T00:45:59.559Z,98838.92
2017-08-08T00:48:29.423Z,98835.81
2017-08-08T00:50:58.749Z,98838.06
2017-08-08T00:53:28.351Z,98834.06
2017-08-08T00:55:59.474Z,98833.63
2017-08-08T00:58:28.624Z,98835.72
2017-08-08T01:01:00.654Z,98827.80
2017-08-08T01:03:30.524Z,98832.18
2017-08-08T01:06:00.055Z,98820.97
2017-08-08T01:08:29.501Z,98813.98
2017-08-08T01:10:59.680Z,98813.79
2017-08-08T01:13:29.072Z,98811.30
2017-08-08T01:15:59.011Z,98801.80
2017-08-08T01:18:28.966Z,98798.08
2017-08-08T01:20:59.475Z,98792.51
2017-08-08T01:23:28.955Z,98789.61
2017-08-08T01:26:00.739Z,98784.61
2017-08-08T01:28:30.247Z,98784.86
2017-08-08T01:31:00.055Z,98785.73
2017-08-08T01:33:29.922Z,98782.60
2017-08-08T01:36:00.884Z,98781.34
2017-08-08T01:38:31.483Z,98777.23
2017-08-08T01:41:01.637Z,98776.38
2017-08-08T01:43:31.593Z,98776.94
2017-08-08T01:46:09.192Z,98779.75
2017-08-08T01:48:38.630Z,98777.95
2017-08-08T01:51:08.087Z,98781.76
2017-08-08T01:53:37.736Z,98773.46
2017-08-08T01:56:07.150Z,98773.67
2017-08-08T01:58:36.585Z,98770.59
2017-08-08T02:01:06.592Z,98765.81
2017-08-08T02:03:36.125Z,98763.55
2017-08-08T02:06:05.393Z,98760.19
2017-08-08T02:08:34.725Z,98757.00
2017-08-08T02:11:04.273Z,98768.04
2017-08-08T02:13:33.588Z,98774.37
2017-08-08T02:16:02.876Z,98766.16
2017-08-08T02:18:33.663Z,98760.48
2017-08-08T02:21:03.347Z,98763.15
2017-08-08T02:23:32.768Z,98768.00
2017-08-08T02:26:02.956Z,98756.86
2017-08-08T02:28:32.346Z,98754.92
2017-08-08T02:31:01.611Z,98754.55
2017-08-08T02:33:31.122Z,98757.82
2017-08-08T02:36:00.596Z,98751.33
2017-08-08T02:38:30.303Z,98754.42
2017-08-08T02:41:00.187Z,98749.45
2017-08-08T02:43:30.293Z,98746.27
2017-08-08T02:46:01.242Z,98746.38
2017-08-08T02:48:30.751Z,98750.45
2017-08-08T02:51:03.492Z,98751.83
2017-08-08T02:53:34.482Z,98755.08
2017-08-08T02:56:04.100Z,98752.34
2017-08-08T02:58:34.053Z,98751.82
2017-08-08T03:01:03.404Z,98754.09
2017-08-08T03:03:34.330Z,98748.44
2017-08-08T03:06:03.623Z,98745.84
2017-08-08T03:08:32.821Z,98743.23
2017-08-08T03:11:02.576Z,98744.48
2017-08-08T03:13:32.088Z,98741.97
2017-08-08T03:16:01.483Z,98748.52
2017-08-08T03:18:31.736Z,98748.52
2017-08-08T03:21:01.451Z,98750.91
2017-08-08T03:23:31.100Z,98745.52
2017-08-08T03:26:00.290Z,98743.91
2017-08-08T03:28:29.943Z,98739.01
2017-08-08T03:30:59.437Z,98743.91
2017-08-08T03:33:28.758Z,98743.86
2017-08-08T03:36:01.431Z,98730.98
2017-08-08T03:38:30.775Z,98731.26
2017-08-08T03:41:00.143Z,98728.06
2017-08-08T03:43:37.905Z,98721.70
2017-08-08T03:46:08.038Z,98712.55
2017-08-08T03:48:37.626Z,98712.92
2017-08-08T03:51:07.046Z,98702.44
2017-08-08T03:53:36.467Z,98693.77
2017-08-08T03:56:06.390Z,98694.44
2017-08-08T03:58:36.024Z,98687.83
2017-08-08T04:01:05.683Z,98685.70
2017-08-08T04:03:35.634Z,98677.10
2017-08-08T04:06:05.315Z,98675.35
2017-08-08T04:08:34.908Z,98677.16
2017-08-08T04:11:05.407Z,98672.20
2017-08-08T04:13:37.295Z,98671.81
2017-08-08T04:16:07.906Z,98669.30
2017-08-08T04:18:39.147Z,98672.98
2017-08-08T04:21:08.863Z,98670.13
2017-08-08T04:23:40.233Z,98661.13
2017-08-08T04:26:10.526Z,98659.83
2017-08-08T04:28:40.504Z,98656.95
2017-08-08T04:31:10.133Z,98644.91
2017-08-08T04:33:39.426Z,98635.31
2017-08-08T04:36:09.171Z,98630.56
2017-08-08T04:38:40.548Z,98629.07
2017-08-08T04:41:10.558Z,98630.14
2017-08-08T04:43:46.121Z,98631.17
2017-08-08T04:46:15.983Z,98639.02
2017-08-08T04:48:45.576Z,98645.05
2017-08-08T04:51:14.983Z,98660.77
2017-08-08T04:53:48.367Z,98652.35
2017-08-08T04:56:18.237Z,98650.59
2017-08-08T04:58:47.870Z,98654.72
2017-08-08T05:01:17.523Z,98648.58
2017-08-08T05:03:47.894Z,98645.69
2017-08-08T05:06:17.690Z,98637.65
2017-08-08T05:08:46.971Z,98636.23
2017-08-08T05:11:16.513Z,98625.95
2017-08-08T05:13:45.981Z,98613.58
2017-08-08T05:16:15.437Z,98605.28
2017-08-08T05:18:45.428Z,98611.69
2017-08-08T05:21:16.175Z,98614.01
2017-08-08T05:23:46.819Z,98618.41
2017-08-08T05:26:16.687Z,98613.84
2017-08-08T05:28:46.535Z,98601.38
2017-08-08T05:31:16.201Z,98592.86
2017-08-08T05:33:48.673Z,98588.32
2017-08-08T05:36:18.436Z,98588.59
2017-08-08T05:38:48.211Z,98586.17
2017-08-08T05:41:20.060Z,98588.84
2017-08-08T05:43:49.930Z,98596.28
2017-08-08T05:46:20.641Z,98602.88
2017-08-08T05:48:56.599Z,98598.45
2017-08-08T05:51:27.075Z,98593.75
2017-08-08T05:54:05.355Z,98591.39
2017-08-08T05:56:34.732Z,98594.75
2017-08-08T05:59:07.034Z,98594.64
2017-08-08T06:01:37.367Z,98600.38
2017-08-08T06:04:08.116Z,98605.95
2017-08-08T06:06:37.880Z,98596.19
2017-08-08T06:09:09.846Z,98600.88
2017-08-08T06:11:39.166Z,98597.64
2017-08-08T06:14:08.476Z,98590.80
2017-08-08T06:16:38.511Z,98578.80
2017-08-08T06:19:07.820Z,98577.09
2017-08-08T06:21:37.437Z,98576.25
2017-08-08T06:24:12.620Z,98570.83
2017-08-08T06:26:41.936Z,98563.30
2017-08-08T06:29:11.931Z,98553.67
2017-08-08T06:31:41.705Z,98554.88
2017-08-08T06:34:11.090Z,98549.50
2017-08-08T06:36:41.546Z,98551.09
2017-08-08T06:39:10.776Z,98547.08
2017-08-08T06:41:40.448Z,98547.69
2017-08-08T06:44:13.039Z,98549.72
2017-08-08T06:46:43.702Z,98551.52
2017-08-08T06:49:13.606Z,98548.05
2017-08-08T06:51:44.179Z,98548.20
2017-08-08T06:54:13.426Z,98549.14
2017-08-08T06:56:43.155Z,98539.64
2017-08-08T06:59:12.679Z,98533.08
2017-08-08T07:01:44.210Z,98535.27
2017-08-08T07:04:13.700Z,98529.72
2017-08-08T07:06:43.307Z,98524.65
2017-08-08T07:09:14.195Z,98521.14
2017-08-08T07:11:45.072Z,98518.20
2017-08-08T07:14:16.776Z,98510.52
2017-08-08T07:16:46.099Z,98518.86
2017-08-08T07:19:15.627Z,98512.86
2017-08-08T07:21:46.464Z,98522.33
2017-08-08T07:24:16.304Z,98522.73
2017-08-08T07:26:46.459Z,98519.09
2017-08-08T07:29:16.230Z,98513.07
2017-08-08T07:31:45.831Z,98507.02
2017-08-08T07:34:17.971Z,98511.19
2017-08-08T07:36:47.526Z,98506.52
2017-08-08T07:39:16.971Z,98510.79
2017-08-08T07:41:47.282Z,98506.53
2017-08-08T07:44:16.935Z,98510.34
2017-08-08T07:46:46.652Z,98512.45
2017-08-08T07:49:18.543Z,98508.94
2017-08-08T07:52:06.449Z,98507.28
2017-08-08T07:54:36.275Z,98502.20
2017-08-08T07:57:05.777Z,98505.00
2017-08-08T07:59:35.054Z,98497.84
2017-08-08T08:02:05.524Z,98492.91
2017-08-08T08:04:34.801Z,98487.81
2017-08-08T08:07:04.668Z,98484.86
2017-08-08T08:09:35.686Z,98485.22
2017-08-08T08:12:05.264Z,98485.23
2017-08-08T08:14:34.488Z,98483.45
2017-08-08T08:17:05.647Z,98481.34
2017-08-08T08:19:34.903Z,98480.94
2017-08-08T08:22:04.732Z,98485.72
2017-08-08T08:24:34.509Z,98471.11
2017-08-08T08:27:04.939Z,98480.64
2017-08-08T08:29:34.587Z,98483.73
2017-08-08T08:32:04.276Z,98470.16
2017-08-08T08:34:33.958Z,98457.92
2017-08-08T08:37:03.869Z,98453.92
2017-08-08T08:39:40.037Z,98441.24
2017-08-08T08:42:09.325Z,98430.69
2017-08-08T08:44:38.830Z,98428.86
2017-08-08T08:47:08.677Z,98427.47
2017-08-08T08:49:38.054Z,98419.02
2017-08-08T08:52:07.780Z,98421.45
2017-08-08T08:54:37.474Z,98418.64
2017-08-08T08:57:08.663Z,98417.34
2017-08-08T08:59:38.178Z,98420.05
2017-08-08T09:02:09.376Z,98406.67
2017-08-08T09:07:02.058Z,98400.34
2017-08-08T09:09:31.539Z,98408.44
2017-08-08T09:12:09.515Z,98406.75
2017-08-08T09:14:39.214Z,98413.74
2017-08-08T09:17:08.915Z,98405.34
2017-08-08T09:19:38.506Z,98402.08
2017-08-08T09:22:08.081Z,98402.69
2017-08-08T09:24:38.086Z,98400.81
2017-08-08T09:27:07.825Z,98397.28
2017-08-08T09:29:37.301Z,98381.62
2017-08-08T09:32:06.481Z,98370.76
2017-08-08T09:34:35.855Z,98370.05
2017-08-08T09:37:05.708Z,98380.36
2017-08-08T09:39:35.080Z,98371.42
2017-08-08T09:42:04.418Z,98379.12
2017-08-08T09:44:34.529Z,98385.85
2017-08-08T09:47:04.991Z,98390.30
2017-08-08T09:49:34.252Z,98389.53
2017-08-08T09:52:03.739Z,98381.42
2017-08-08T09:54:33.002Z,98389.00
2017-08-08T09:57:02.419Z,98387.33
2017-08-08T10:00:00.937Z,98387.23
2017-08-08T10:02:30.544Z,98385.39
2017-08-08T10:05:00.512Z,98376.20
2017-08-08T10:07:29.795Z,98383.77
2017-08-08T10:09:59.912Z,98384.45
2017-08-08T10:12:29.415Z,98388.19
2017-08-08T10:14:59.641Z,98386.62
2017-08-08T10:17:29.675Z,98375.34
2017-08-08T10:20:00.106Z,98376.16
2017-08-08T10:22:29.635Z,98379.18
2017-08-08T10:25:00.616Z,98366.46
2017-08-08T10:27:30.352Z,98377.01
2017-08-08T10:29:59.629Z,98381.83
2017-08-08T10:32:28.970Z,98379.92
2017-08-08T10:35:00.561Z,98365.06
2017-08-08T10:37:33.295Z,98363.13
2017-08-08T10:40:03.077Z,98363.09
2017-08-08T10:42:38.519Z,98358.38
2017-08-08T10:45:08.503Z,98358.30
2017-08-08T10:47:38.228Z,98353.57
2017-08-08T10:50:07.763Z,98359.73
2017-08-08T10:52:37.474Z,98357.91
2017-08-08T10:55:08.755Z,98353.37
2017-08-08T10:57:38.038Z,98353.63
2017-08-08T11:00:09.816Z,98354.08
2017-08-08T11:02:39.021Z,98350.16
2017-08-08T11:05:08.515Z,98346.88
2017-08-08T11:07:38.168Z,98345.09
2017-08-08T11:10:07.998Z,98345.81
2017-08-08T11:12:37.207Z,98329.86
2017-08-08T11:15:07.812Z,98332.48
2017-08-08T11:17:37.435Z,98337.32
2017-08-08T11:20:07.306Z,98337.75
2017-08-08T11:22:37.064Z,98335.48
2017-08-08T11:25:08.761Z,98328.41
2017-08-08T11:27:38.618Z,98326.87
2017-08-08T11:30:08.036Z,98330.31
2017-08-08T11:32:37.265Z,98323.11
2017-08-08T11:35:06.955Z,98323.39
2017-08-08T11:37:36.714Z,98321.13
2017-08-08T11:40:11.074Z,98318.20
2017-08-08T11:42:40.660Z,98318.67
2017-08-08T11:45:10.265Z,98313.58
2017-08-08T11:47:40.319Z,98317.05
2017-08-08T11:50:10.088Z,98318.44
2017-08-08T11:52:39.779Z,98314.65
2017-08-08T11:55:08.983Z,98320.68
2017-08-08T11:57:38.853Z,98317.64
2017-08-08T12:00:08.644Z,98316.55
2017-08-08T12:02:37.851Z,98321.34
2017-08-08T12:05:07.558Z,98317.14
2017-08-08T12:07:36.748Z,98323.33
2017-08-08T12:10:06.319Z,98313.83
2017-08-08T12:12:35.822Z,98317.67
2017-08-08T12:15:05.094Z,98319.19
2017-08-08T12:17:34.710Z,98321.64
2017-08-08T12:20:05.531Z,98316.58
2017-08-08T12:22:34.919Z,98309.44
2017-08-08T12:25:04.276Z,98297.78
2017-08-08T12:27:33.979Z,98294.47
2017-08-08T12:30:03.255Z,98300.31
2017-08-08T12:32:33.440Z,98306.12
2017-08-08T12:35:04.609Z,98301.63
2017-08-08T12:37:34.349Z,98304.92
2017-08-08T12:40:03.831Z,98298.55
2017-08-08T12:42:33.321Z,98293.13
2017-08-08T12:45:02.566Z,98273.81
2017-08-08T12:47:31.999Z,98291.11
2017-08-08T12:50:01.890Z,98295.69
2017-08-08T12:52:31.116Z,98289.78
2017-08-08T12:55:02.817Z,98277.80
2017-08-08T12:57:32.919Z,98280.64
2017-08-08T13:00:02.465Z,98273.25
2017-08-08T13:02:32.207Z,98273.97
2017-08-08T13:05:01.873Z,98263.78
2017-08-08T13:07:31.131Z,98270.66
2017-08-08T13:10:00.579Z,98268.17
2017-08-08T13:12:36.794Z,98275.97
2017-08-08T13:15:08.879Z,98283.39
2017-08-08T13:17:38.731Z,98273.73
2017-08-08T13:20:13.597Z,98291.02
2017-08-08T13:22:44.339Z,98295.49
2017-08-08T13:25:15.435Z,98285.83
2017-08-08T13:27:45.827Z,98277.02
2017-08-08T13:30:19.339Z,98266.62
2017-08-08T13:32:48.638Z,98280.01
2017-08-08T13:35:17.844Z,98275.61
2017-08-08T13:37:47.374Z,98285.78
2017-08-08T13:40:16.579Z,98293.23
2017-08-08T13:42:45.861Z,98298.69
2017-08-08T13:45:15.819Z,98309.63
2017-08-08T13:47:45.131Z,98306.45
2017-08-08T13:50:14.499Z,98298.33
2017-08-08T13:52:44.571Z,98298.47
2017-08-08T13:55:13.764Z,98309.69
2017-08-08T13:57:54.990Z,98307.36
2017-08-08T14:00:30.433Z,98315.35
2017-08-08T14:02:59.932Z,98319.69
2017-08-08T14:05:29.503Z,98320.03
2017-08-08T14:08:02.695Z,98319.20
2017-08-08T14:10:31.936Z,98323.18
2017-08-08T14:13:01.367Z,98317.64
2017-08-08T14:15:30.886Z,98318.00
2017-08-08T14:18:00.244Z,98309.92
2017-08-08T14:20:29.554Z,98298.33
2017-08-08T14:22:59.914Z,98294.73
2017-08-08T14:25:29.088Z,98301.00
2017-08-08T14:27:59.871Z,98299.36
2017-08-08T14:30:29.963Z,98310.31
2017-08-08T14:33:00.504Z,98305.54
2017-08-08T14:35:29.713Z,98301.17
2017-08-08T14:38:01.438Z,98300.34
2017-08-08T14:40:30.779Z,98296.04
2017-08-08T14:43:00.368Z,98294.31
2017-08-08T14:45:29.891Z,98293.71
2017-08-08T14:47:59.411Z,98289.69
2017-08-08T14:50:28.624Z,98286.23
2017-08-08T14:52:59.563Z,98281.03
2017-08-08T14:55:28.895Z,98276.75
2017-08-08T14:58:00.008Z,98276.74
2017-08-08T15:00:29.814Z,98285.78
2017-08-08T15:03:01.365Z,98282.92
2017-08-08T15:05:30.587Z,98284.73
2017-08-08T15:08:00.302Z,98283.72
2017-08-08T15:10:29.895Z,98289.42
2017-08-08T15:12:59.563Z,98296.17
2017-08-08T15:15:29.183Z,98300.23
2017-08-08T15:17:58.387Z,98299.13
2017-08-08T15:20:28.876Z,98303.69
2017-08-08T15:22:59.758Z,98301.84
2017-08-08T15:25:29.008Z,98306.30
2017-08-08T15:28:00.423Z,98297.89
2017-08-08T15:30:30.159Z,98291.77
2017-08-08T15:33:00.223Z,98299.92
2017-08-08T15:35:29.675Z,98294.55
2017-08-08T15:38:00.791Z,98289.45
2017-08-08T15:40:30.008Z,98297.34
2017-08-08T15:43:00.625Z,98300.01
2017-08-08T15:45:30.083Z,98304.17
2017-08-08T15:48:01.113Z,98298.94
2017-08-08T15:50:30.353Z,98310.20
2017-08-08T15:53:00.413Z,98309.73
2017-08-08T15:55:29.987Z,98307.64
2017-08-08T15:58:01.889Z,98310.27
2017-08-08T16:00:31.402Z,98310.92
2017-08-08T16:03:00.640Z,98305.80
2017-08-08T16:05:29.897Z,98300.16
2017-08-08T16:07:59.523Z,98304.13
2017-08-08T16:10:28.779Z,98297.95
2017-08-08T16:13:02.162Z,98289.95
2017-08-08T16:15:32.059Z,98304.26
2017-08-08T16:18:01.492Z,98308.37
2017-08-08T16:20:30.820Z,98318.39
2017-08-08T16:23:00.376Z,98319.32
2017-08-08T16:25:29.708Z,98326.31
2017-08-08T16:28:00.043Z,98333.95
2017-08-08T16:30:29.707Z,98336.06
2017-08-08T16:33:01.165Z,98334.51
2017-08-08T16:35:31.659Z,98336.78
2017-08-08T16:38:01.207Z,98336.12
2017-08-08T16:40:31.092Z,98340.78
2017-08-08T16:43:00.379Z,98338.38
2017-08-08T16:45:30.249Z,98349.11
2017-08-08T16:47:59.856Z,98351.36
2017-08-08T16:50:29.367Z,98353.22
2017-08-08T16:53:00.765Z,98345.61
2017-08-08T16:55:30.151Z,98359.20
2017-08-08T16:58:00.513Z,98364.13
2017-08-08T17:00:30.129Z,98373.74
2017-08-08T17:03:00.180Z,98368.63
2017-08-08T17:05:29.503Z,98354.72
2017-08-08T17:08:01.262Z,98349.13
2017-08-08T17:10:30.548Z,98362.22
2017-08-08T17:13:00.203Z,98370.67
2017-08-08T17:15:31.507Z,98371.13
2017-08-08T17:18:00.807Z,98372.58
2017-08-08T17:20:30.084Z,98367.51
2017-08-08T17:22:59.626Z,98377.78
2017-08-08T17:25:29.031Z,98377.78
2017-08-08T17:28:01.188Z,98377.71
2017-08-08T17:30:30.916Z,98372.36
2017-08-08T17:33:00.621Z,98357.58
2017-08-08T17:35:30.389Z,98350.23
2017-08-08T17:38:00.087Z,98357.46
2017-08-08T17:40:29.798Z,98373.47
2017-08-08T17:42:59.864Z,98377.02
2017-08-08T17:45:30.443Z,98380.60
2017-08-08T17:48:00.173Z,98380.60
2017-08-08T17:50:29.839Z,98383.78
2017-08-08T17:53:00.411Z,98383.61
2017-08-08T17:55:30.488Z,98383.39
2017-08-08T17:58:00.631Z,98377.82
2017-08-08T18:00:30.273Z,98375.95
2017-08-08T18:03:01.327Z,98371.04
2017-08-08T18:05:30.563Z,98372.52
2017-08-08T18:08:00.508Z,98374.65
2017-08-08T18:10:30.297Z,98374.27
2017-08-08T18:13:00.364Z,98370.38
2017-08-08T18:15:29.941Z,98371.90
2017-08-08T18:18:00.704Z,98380.30
2017-08-08T18:20:29.974Z,98386.86
2017-08-08T18:22:59.579Z,98390.11
2017-08-08T18:25:29.779Z,98391.81
2017-08-08T18:27:59.516Z,98388.73
2017-08-08T18:30:29.179Z,98402.67
2017-08-08T18:32:58.424Z,98402.67
2017-08-08T18:35:27.628Z,98413.59
2017-08-08T18:37:57.337Z,98420.20
2017-08-08T18:40:27.207Z,98443.26
2017-08-08T18:43:01.384Z,98446.33
2017-08-08T18:45:31.011Z,98442.12
2017-08-08T18:48:00.782Z,98435.32
2017-08-08T18:50:30.558Z,98435.23
2017-08-08T18:53:00.318Z,98437.15
2017-08-08T18:55:29.532Z,98447.02
2017-08-08T18:57:59.746Z,98436.30
2017-08-08T19:00:29.378Z,98438.34
2017-08-08T19:02:59.700Z,98442.79
2017-08-08T19:05:28.863Z,98436.90
2017-08-08T19:08:00.841Z,98453.25
2017-08-08T19:10:30.470Z,98461.84
2017-08-08T19:13:00.111Z,98458.38
2017-08-08T19:15:29.599Z,98459.20
2017-08-08T19:18:01.147Z,98466.05
2017-08-08T19:20:30.414Z,98472.59
2017-08-08T19:23:00.944Z,98476.80
2017-08-08T19:25:30.349Z,98487.59
2017-08-08T19:27:59.711Z,98486.59
2017-08-08T19:30:30.995Z,98499.39
2017-08-08T19:33:00.859Z,98511.72
2017-08-08T19:35:30.388Z,98509.14
2017-08-08T19:38:00.171Z,98514.42
2017-08-08T19:40:30.344Z,98509.68
2017-08-08T19:42:59.749Z,98512.17
2017-08-08T19:45:29.286Z,98509.73
2017-08-08T19:48:00.415Z,98512.15
2017-08-08T19:50:29.992Z,98518.14
2017-08-08T19:53:00.223Z,98515.02
2017-08-08T19:55:29.717Z,98504.10
2017-08-08T19:58:01.041Z,98506.22
2017-08-08T20:00:30.798Z,98518.84
2017-08-08T20:03:00.101Z,98509.12
2017-08-08T20:05:30.247Z,98501.20
2017-08-08T20:08:00.661Z,98503.77
2017-08-08T20:10:30.067Z,98509.87
2017-08-08T20:13:00.603Z,98513.17
2017-08-08T20:15:30.247Z,98516.68
2017-08-08T20:18:00.049Z,98530.08
2017-08-08T20:20:29.224Z,98520.28
2017-08-08T20:23:01.754Z,98525.81
2017-08-08T20:25:31.209Z,98527.17
2017-08-08T20:28:00.684Z,98520.51
2017-08-08T20:30:30.385Z,98528.11
2017-08-08T20:32:59.898Z,98527.31
2017-08-08T20:35:29.092Z,98524.22
2017-08-08T20:38:00.311Z,98529.14
2017-08-08T20:40:29.559Z,98525.59
2017-08-08T20:43:01.072Z,98515.50
2017-08-08T20:45:30.615Z,98517.88
2017-08-08T20:48:00.249Z,98536.95
2017-08-08T20:50:29.511Z,98548.48
2017-08-08T20:52:59.775Z,98544.52
2017-08-08T20:55:28.982Z,98549.21
2017-08-08T20:57:59.567Z,98551.09
2017-08-08T21:00:29.696Z,98545.14
2017-08-08T21:03:00.020Z,98536.49
2017-08-08T21:05:29.411Z,98540.88
2017-08-08T21:08:01.132Z,98543.09
2017-08-08T21:10:30.667Z,98546.73
2017-08-08T21:13:00.032Z,98546.31
2017-08-08T21:15:29.571Z,98545.31
2017-08-08T21:17:59.819Z,98549.58
2017-08-08T21:20:29.808Z,98554.36
2017-08-08T21:22:59.744Z,98552.16
2017-08-08T21:25:28.954Z,98557.28
2017-08-08T21:28:00.387Z,98548.42
2017-08-08T21:30:30.708Z,98543.97
2017-08-08T21:33:00.157Z,98528.13
2017-08-08T21:35:29.527Z,98534.20
2017-08-08T21:37:59.944Z,98551.07
2017-08-08T21:40:29.671Z,98559.48
2017-08-08T21:43:01.292Z,98557.30
2017-08-08T21:45:30.954Z,98533.17
2017-08-08T21:48:00.881Z,98539.50
2017-08-08T21:50:31.533Z,98554.51
2017-08-08T21:53:02.082Z,98551.70
2017-08-08T21:55:33.951Z,98555.75
2017-08-08T21:58:03.255Z,98558.17
2017-08-08T22:00:32.755Z,98540.25
2017-08-08T22:03:02.099Z,98535.48
2017-08-08T22:05:31.705Z,98540.47
2017-08-08T22:08:01.445Z,98549.22
2017-08-08T22:10:31.675Z,98558.25
2017-08-08T22:13:03.374Z,98560.42
2017-08-08T22:15:32.991Z,98561.69
2017-08-08T22:18:02.259Z,98569.06
2017-08-08T22:20:31.939Z,98573.00
2017-08-08T22:23:01.443Z,98581.31
2017-08-08T22:25:34.543Z,98597.66
2017-08-08T22:28:03.828Z,98603.70
2017-08-08T22:30:33.410Z,98605.45
2017-08-08T22:33:02.702Z,98596.72
2017-08-08T22:35:31.935Z,98613.44
2017-08-08T22:38:03.322Z,98606.37
2017-08-08T22:40:32.955Z,98617.61
2017-08-08T22:43:04.813Z,98624.33
2017-08-08T22:45:34.459Z,98632.75
2017-08-08T22:48:04.095Z,98631.71
2017-08-08T22:50:33.559Z,98634.96
2017-08-08T22:53:03.512Z,98637.43
2017-08-08T22:55:32.902Z,98641.93
2017-08-08T22:58:02.277Z,98646.06
2017-08-08T23:00:32.055Z,98642.66
2017-08-08T23:03:01.338Z,98641.05
2017-08-08T23:05:30.655Z,98635.84
2017-08-08T23:08:00.225Z,98638.23
2017-08-08T23:10:29.919Z,98639.80
2017-08-08T23:13:03.547Z,98631.24
2017-08-08T23:15:33.504Z,98639.35
2017-08-08T23:18:02.747Z,98646.63
2017-08-08T23:20:32.012Z,98647.95
2017-08-08T23:23:01.677Z,98640.84
2017-08-08T23:25:31.644Z,98635.13
2017-08-08T23:28:01.747Z,98633.33
2017-08-08T23:30:31.572Z,98625.67
2017-08-08T23:33:00.828Z,98626.30
2017-08-08T23:35:30.384Z,98624.22
2017-08-08T23:38:00.224Z,98624.73
2017-08-08T23:40:29.599Z,98629.66
2017-08-08T23:43:00.152Z,98633.46
2017-08-08T23:45:29.674Z,98624.73
2017-08-08T23:47:59.359Z,98628.27
2017-08-08T23:50:29.011Z,98625.95
2017-08-08T23:53:00.745Z,98621.72
2017-08-08T23:55:30.399Z,98632.95
2017-08-08T23:58:00.835Z,98635.30
